Time;durP1;ratioP1;P1;durP2;ratioP2;P2;SDS_P1;SDS_P2;PMS_P1;PMS_P2;Temp;Humidity;BMP_temperature;BMP_pressure;BME280_temperature;BME280_humidity;BME280_pressure;Samples;Min_cycle;Max_cycle;Signal;HPM_P1;HPM_P2
2022/12/26 00:02:00;;;;;;;11.05;5.60;;;;;;;13.65;70.73;100628.06;5000578;28;96798;-65
2022/12/26 00:04:27;;;;;;;8.38;5.30;;;;;;;13.76;70.21;100634.56;5004230;28;99080;-65
2022/12/26 00:06:54;;;;;;;12.15;5.60;;;;;;;13.75;70.50;100631.97;5010434;28;99051;-67
2022/12/26 00:09:21;;;;;;;11.00;5.20;;;;;;;13.82;70.47;100638.69;5005351;28;96773;-65
2022/12/26 00:11:48;;;;;;;9.50;5.13;;;;;;;13.93;69.68;100641.66;5006850;28;97873;-66
2022/12/26 00:14:15;;;;;;;10.27;5.55;;;;;;;13.86;70.13;100616.34;5003537;28;98053;-66
2022/12/26 00:16:43;;;;;;;8.23;4.93;;;;;;;13.69;70.53;100635.81;5007014;28;101434;-64
2022/12/26 00:19:12;;;;;;;8.13;5.20;;;;;;;13.65;70.61;100620.97;5004489;28;96845;-66
2022/12/26 00:21:38;;;;;;;5.80;5.18;;;;;;;13.69;70.63;100622.53;5007056;28;96898;-65
2022/12/26 00:24:05;;;;;;;7.53;5.10;;;;;;;13.54;71.01;100610.88;5003425;28;98901;-64
2022/12/26 00:26:34;;;;;;;7.60;4.85;;;;;;;13.81;70.30;100599.78;4997340;28;100275;-64
2022/12/26 00:29:01;;;;;;;9.15;4.93;;;;;;;13.69;70.70;100590.66;4998084;28;96815;-65
2022/12/26 00:31:30;;;;;;;9.43;4.85;;;;;;;13.90;70.19;100602.84;5006247;28;96923;-65
2022/12/26 00:33:57;;;;;;;9.70;4.95;;;;;;;13.74;70.47;100599.25;4999526;28;101959;-64
2022/12/26 00:36:28;;;;;;;7.85;4.72;;;;;;;13.74;70.57;100614.31;5008915;28;99261;-65
2022/12/26 00:38:55;;;;;;;7.95;4.38;;;;;;;13.84;70.40;100611.13;5001259;28;96962;-65
2022/12/26 00:41:22;;;;;;;11.50;5.13;;;;;;;13.81;70.43;100605.09;5007707;28;96920;-65
2022/12/26 00:43:50;;;;;;;8.23;4.50;;;;;;;13.77;70.76;100604.41;5000196;28;99485;-66
2022/12/26 00:46:16;;;;;;;7.05;4.38;;;;;;;13.72;70.77;100598.44;5007311;28;98851;-65
2022/12/26 00:48:43;;;;;;;5.78;4.15;;;;;;;13.72;70.91;100587.84;5002232;28;96880;-65
2022/12/26 00:51:10;;;;;;;9.25;4.35;;;;;;;13.67;71.07;100587.22;5009205;28;96772;-66
2022/12/26 00:53:37;;;;;;;6.45;4.80;;;;;;;13.71;70.82;100578.19;5001784;28;98916;-66
2022/12/26 00:56:04;;;;;;;11.10;4.75;;;;;;;13.59;71.25;100591.22;5009086;28;99103;-65
2022/12/26 00:58:30;;;;;;;8.98;4.55;;;;;;;13.61;71.59;100586.66;5002308;28;96952;-64
2022/12/26 01:01:06;;;;;;;7.78;4.47;;;;;;;13.66;71.73;100580.19;5010374;28;97080;-65
2022/12/26 01:03:32;;;;;;;8.03;4.27;;;;;;;13.78;70.73;100573.41;5002731;28;99186;-65
2022/12/26 01:06:02;;;;;;;9.93;4.45;;;;;;;13.60;71.36;100566.34;5007659;28;98888;-65
2022/12/26 01:08:28;;;;;;;6.70;4.70;;;;;;;13.74;71.01;100563.88;5002586;28;96899;-65
2022/12/26 01:10:56;;;;;;;7.53;4.00;;;;;;;13.71;71.16;100556.94;5005650;28;96917;-65
2022/12/26 01:13:22;;;;;;;5.25;3.95;;;;;;;13.60;71.35;100563.69;5007945;28;98335;-66
2022/12/26 01:15:50;;;;;;;9.80;4.30;;;;;;;13.79;70.89;100559.16;5004224;28;98870;-67
2022/12/26 01:18:16;;;;;;;6.25;3.97;;;;;;;13.81;70.63;100563.47;5001793;28;96910;-66
2022/12/26 01:20:43;;;;;;;7.03;4.07;;;;;;;13.77;70.67;100553.97;5003237;28;96931;-64
2022/12/26 01:23:09;;;;;;;5.57;4.05;;;;;;;13.71;70.94;100548.97;5001227;28;98919;-64
2022/12/26 01:25:36;;;;;;;5.07;4.00;;;;;;;13.72;71.10;100550.66;5001976;28;99096;-66
2022/12/26 01:28:04;;;;;;;5.90;3.90;;;;;;;13.74;70.59;100564.72;5010465;28;96875;-65
2022/12/26 01:30:31;;;;;;;7.65;4.13;;;;;;;13.84;70.42;100565.97;5003167;28;96759;-66
2022/12/26 01:32:57;;;;;;;7.80;4.03;;;;;;;13.67;70.94;100559.81;5010368;28;97993;-64
2022/12/26 01:35:23;;;;;;;9.35;4.45;;;;;;;13.85;70.71;100570.31;5003308;28;97557;-65
2022/12/26 01:37:50;;;;;;;8.50;4.55;;;;;;;13.79;70.74;100557.38;5007787;28;96981;-65
2022/12/26 01:40:16;;;;;;;5.63;3.70;;;;;;;13.80;70.58;100560.88;5006300;28;96903;-65
2022/12/26 01:42:42;;;;;;;9.07;4.03;;;;;;;13.84;70.45;100547.41;5007833;28;99147;-67
2022/12/26 01:45:23;;;;;;;9.20;4.85;;;;;;;13.81;70.29;100550.19;5004157;28;98128;-66
2022/12/26 01:47:53;;;;;;;4.85;3.97;;;;;;;13.88;70.09;100548.06;5007881;28;96873;-65
2022/12/26 01:50:29;;;;;;;6.53;3.67;;;;;;;13.72;70.78;100545.34;4998213;28;96822;-65
2022/12/26 01:52:57;;;;;;;6.97;3.72;;;;;;;13.68;70.69;100535.84;5007852;28;99313;-65
2022/12/26 01:55:24;;;;;;;6.50;4.22;;;;;;;13.68;70.78;100538.50;5002140;28;98787;-65
2022/12/26 01:57:55;;;;;;;6.35;3.55;;;;;;;13.73;70.42;100533.78;5007140;28;97064;-65
2022/12/26 02:00:23;;;;;;;7.88;3.97;;;;;;;13.64;70.89;100536.94;4998261;28;96923;-64
2022/12/26 02:05:34;;;;;;;7.43;4.00;;;;;;;13.64;70.99;100547.56;5008276;28;97073;-65
2022/12/26 02:08:04;;;;;;;5.22;3.95;;;;;;;13.61;70.61;100542.38;5004978;28;96784;-66
2022/12/26 02:10:36;;;;;;;5.32;3.58;;;;;;;13.63;70.93;100547.63;5005646;28;98215;-65
2022/12/26 02:13:03;;;;;;;5.35;4.05;;;;;;;13.67;71.01;100543.88;5002183;28;99201;-66
2022/12/26 02:15:31;;;;;;;7.65;4.40;;;;;;;13.59;71.17;100552.22;5003932;28;99009;-66
2022/12/26 02:17:57;;;;;;;9.45;4.38;;;;;;;13.60;71.65;100547.78;5005580;28;96922;-65
2022/12/26 02:20:27;;;;;;;5.93;4.07;;;;;;;13.57;71.19;100548.81;5004491;28;96993;-65
2022/12/26 02:23:29;;;;;;;4.60;3.80;;;;;;;13.68;70.97;100535.84;5004131;28;98931;-65
2022/12/26 02:26:16;;;;;;;5.13;3.80;;;;;;;13.86;70.43;100520.72;5009438;28;98720;-65
2022/12/26 02:29:04;;;;;;;7.18;4.00;;;;;;;13.93;70.29;100535.41;5004450;28;96821;-65
2022/12/26 02:31:38;;;;;;;6.22;4.22;;;;;;;13.86;70.08;100534.00;5003601;28;96902;-66
2022/12/26 02:34:15;;;;;;;7.45;4.05;;;;;;;13.67;71.21;100530.59;4998168;28;97530;-65
2022/12/26 02:37:01;;;;;;;6.90;3.95;;;;;;;13.73;70.92;100533.78;5002146;28;98937;-65
2022/12/26 02:39:51;;;;;;;7.13;4.10;;;;;;;13.84;70.36;100522.63;5007902;28;97281;-64
2022/12/26 02:42:29;;;;;;;7.47;3.50;;;;;;;13.86;70.31;100526.91;4997710;28;96813;-65
2022/12/26 02:47:57;;;;;;;6.57;4.03;;;;;;;14.06;69.73;100520.53;5005086;28;97054;-66
2022/12/26 03:13:12;;;;;;;6.07;4.15;;;;;;;13.86;70.20;100529.56;5002753;28;97255;-65
2022/12/26 03:18:29;;;;;;;6.32;3.70;;;;;;;13.97;70.37;100542.28;5001239;28;97257;-64
2022/12/26 03:20:57;;;;;;;5.30;3.95;;;;;;;13.96;70.06;100533.47;5000612;28;98730;-66
2022/12/26 03:23:24;;;;;;;9.85;4.15;;;;;;;14.02;70.40;100531.41;5005060;28;96826;-64
2022/12/26 03:28:40;;;;;;;7.53;4.10;;;;;;;13.82;70.81;100548.41;5001674;28;97243;-65
2022/12/26 03:31:09;;;;;;;9.60;3.88;;;;;;;14.00;70.39;100550.09;5012015;28;99342;-65
2022/12/26 03:36:35;;;;;;;4.53;3.42;;;;;;;14.27;69.40;100547.75;5005095;28;96772;-66
2022/12/26 03:39:13;;;;;;;9.18;3.72;;;;;;;14.21;69.63;100543.63;4997928;28;99128;-64
2022/12/26 04:44:09;;;;;;;5.13;3.60;;;;;;;14.29;69.55;100569.81;5003418;28;96896;-64
2022/12/26 04:46:38;;;;;;;4.68;3.50;;;;;;;14.38;69.19;100569.34;5005746;28;99020;-65
2022/12/26 04:51:49;;;;;;;3.92;3.20;;;;;;;14.42;69.15;100568.25;5008332;28;96913;-65
2022/12/26 04:54:16;;;;;;;6.63;3.50;;;;;;;14.35;68.98;100569.47;5004884;28;96903;-65
2022/12/26 04:56:43;;;;;;;5.80;3.33;;;;;;;14.30;69.14;100577.72;5009179;28;98885;-64
2022/12/26 04:59:11;;;;;;;4.47;3.28;;;;;;;14.40;69.01;100572.78;5006857;28;98838;-64
2022/12/26 05:09:57;;;;;;;4.95;3.45;;;;;;;14.53;68.51;100578.28;5009721;28;97221;-65
2022/12/26 05:12:24;;;;;;;5.10;2.97;;;;;;;14.31;69.27;100573.22;5000132;28;97051;-66
2022/12/26 05:14:51;;;;;;;7.80;3.28;;;;;;;14.41;68.91;100577.16;5004616;28;96875;-65
2022/12/26 05:31:05;;;;;;;4.47;3.20;;;;;;;14.43;68.56;100593.03;5002689;28;97216;-64
2022/12/26 05:36:17;;;;;;;5.45;3.00;;;;;;;14.31;68.58;100594.50;5004178;28;97945;-65
2022/12/26 05:38:43;;;;;;;4.40;3.10;;;;;;;14.31;68.61;100599.81;5010415;28;99558;-65
2022/12/26 05:41:10;;;;;;;4.57;3.08;;;;;;;14.35;68.50;100607.56;5006817;28;99445;-65
2022/12/26 05:43:36;;;;;;;2.90;2.60;;;;;;;14.41;68.64;100601.09;5010650;28;97061;-65
2022/12/26 05:46:04;;;;;;;6.25;3.22;;;;;;;14.48;68.37;100605.13;5010279;28;96879;-65
2022/12/26 05:48:31;;;;;;;4.85;2.92;;;;;;;14.39;68.28;100602.94;5004336;28;100787;-65
2022/12/26 05:50:59;;;;;;;5.25;2.80;;;;;;;14.54;67.98;100606.59;4999448;28;99181;-65
2022/12/26 05:53:25;;;;;;;4.43;3.10;;;;;;;14.55;68.13;100603.88;5004388;28;96765;-64
2022/12/26 05:55:52;;;;;;;3.25;2.40;;;;;;;14.56;68.13;100616.22;5002316;28;97772;-65
2022/12/26 05:58:18;;;;;;;3.33;2.85;;;;;;;14.59;68.13;100613.38;5010280;28;99012;-64
2022/12/26 06:00:45;;;;;;;4.75;3.40;;;;;;;14.57;68.06;100609.94;5002890;28;98832;-65
2022/12/26 06:03:13;;;;;;;6.57;3.22;;;;;;;14.51;67.87;100610.25;5008086;28;96874;-66
2022/12/26 06:05:39;;;;;;;6.32;3.17;;;;;;;14.44;68.22;100611.53;5002798;28;96883;-65
2022/12/26 06:08:06;;;;;;;5.93;3.13;;;;;;;14.48;68.10;100610.44;5006340;28;99251;-65
2022/12/26 06:10:32;;;;;;;4.57;3.00;;;;;;;14.56;67.48;100608.25;5001003;28;98199;-65
2022/12/26 06:13:00;;;;;;;6.40;2.85;;;;;;;14.26;68.37;100605.38;5009271;28;96663;-65
2022/12/26 06:15:26;;;;;;;3.97;2.90;;;;;;;14.20;68.69;100613.66;5002713;28;96794;-66
2022/12/26 06:17:54;;;;;;;6.38;3.20;;;;;;;14.21;68.82;100626.03;5006514;28;99147;-64
2022/12/26 06:20:22;;;;;;;4.95;3.15;;;;;;;14.31;68.48;100618.41;5006514;28;99528;-66
2022/12/26 06:22:49;;;;;;;3.78;2.83;;;;;;;14.52;67.60;100609.34;5006813;28;96891;-65
2022/12/26 06:25:15;;;;;;;4.88;2.42;;;;;;;14.36;68.03;100616.38;5006521;28;96988;-65
2022/12/26 06:27:43;;;;;;;3.38;3.05;;;;;;;14.58;67.26;100611.66;5002231;28;99091;-65
2022/12/26 06:30:10;;;;;;;5.75;2.92;;;;;;;14.62;67.18;100601.72;4999708;28;99173;-64
2022/12/26 06:32:36;;;;;;;3.33;2.72;;;;;;;14.65;66.58;100615.69;5001655;28;96701;-65
2022/12/26 06:35:03;;;;;;;5.57;2.78;;;;;;;14.72;67.02;100619.75;5000613;28;96947;-65
2022/12/26 06:37:32;;;;;;;5.38;2.80;;;;;;;14.70;66.72;100616.31;5001327;28;99489;-64
2022/12/26 06:39:59;;;;;;;3.47;2.35;;;;;;;14.65;66.75;100630.81;5003253;28;98908;-64
2022/12/26 06:42:25;;;;;;;2.97;2.50;;;;;;;14.61;66.99;100639.91;5006528;28;97062;-65
2022/12/26 06:44:52;;;;;;;6.15;2.95;;;;;;;14.61;67.16;100645.22;5004429;28;96819;-66
2022/12/26 06:47:18;;;;;;;3.65;3.10;;;;;;;14.56;67.51;100653.44;5002605;28;99364;-65
2022/12/26 06:49:44;;;;;;;2.60;2.40;;;;;;;14.70;66.85;100642.06;5002844;28;99217;-66
2022/12/26 06:52:12;;;;;;;5.15;2.70;;;;;;;14.62;67.06;100650.47;5002111;28;97920;-65
2022/12/26 06:54:40;;;;;;;4.72;2.80;;;;;;;14.70;66.84;100666.00;5002643;28;97321;-65
2022/12/26 06:57:07;;;;;;;2.80;2.47;;;;;;;14.57;66.98;100676.41;5007056;28;100741;-65
2022/12/26 06:59:33;;;;;;;4.43;2.40;;;;;;;14.65;67.07;100679.53;5009005;28;98795;-65
2022/12/26 07:02:00;;;;;;;3.00;2.53;;;;;;;14.46;67.11;100673.47;5006806;28;96985;-65
2022/12/26 07:04:26;;;;;;;4.55;2.92;;;;;;;14.52;66.88;100673.13;5010026;28;96802;-64
2022/12/26 07:06:52;;;;;;;2.60;2.40;;;;;;;14.70;66.40;100680.13;5003703;28;101393;-65
2022/12/26 07:09:19;;;;;;;2.67;2.40;;;;;;;14.83;66.07;100674.19;5003918;28;98905;-66
2022/12/26 07:11:49;;;;;;;3.97;2.45;;;;;;;14.77;66.15;100668.22;4999768;28;96960;-65
2022/12/26 07:14:17;;;;;;;3.95;2.50;;;;;;;14.55;66.84;100678.31;5003589;28;96839;-65
2022/12/26 07:16:51;;;;;;;5.25;2.22;;;;;;;14.50;66.91;100683.03;4999756;28;97997;-68
2022/12/26 07:19:17;;;;;;;3.50;2.58;;;;;;;14.79;66.22;100673.47;5008626;28;98899;-66
2022/12/26 07:21:44;;;;;;;6.50;2.50;;;;;;;14.77;66.27;100686.84;4999051;28;96799;-65
2022/12/26 07:24:14;;;;;;;2.83;2.47;;;;;;;14.82;66.03;100683.09;5009143;28;96720;-64
2022/12/26 07:26:41;;;;;;;4.38;2.60;;;;;;;14.75;66.04;100685.22;5003068;28;98990;-65
2022/12/26 07:29:10;;;;;;;2.88;2.45;;;;;;;14.97;65.51;100675.13;5008015;28;100497;-65
2022/12/26 07:31:37;;;;;;;2.90;2.60;;;;;;;14.85;66.00;100680.25;4999137;28;96854;-66
2022/12/26 07:34:03;;;;;;;7.00;3.17;;;;;;;14.67;66.68;100685.63;5004777;28;96894;-65
2022/12/26 07:36:30;;;;;;;2.92;2.50;;;;;;;14.82;65.80;100678.63;5002602;28;99543;-65
2022/12/26 07:38:57;;;;;;;4.40;2.47;;;;;;;14.68;66.38;100684.69;5006628;28;98980;-65
2022/12/26 07:44:10;;;;;;;6.45;2.72;;;;;;;14.90;65.66;100679.06;5001675;28;96952;-65
2022/12/26 07:46:37;;;;;;;3.47;2.50;;;;;;;14.73;65.97;100681.78;5002125;28;99416;-65
2022/12/26 07:49:03;;;;;;;3.58;2.75;;;;;;;14.87;65.75;100678.38;5005088;28;98801;-66
2022/12/26 07:51:30;;;;;;;5.57;2.55;;;;;;;14.88;65.87;100685.44;5002703;28;97247;-65
2022/12/26 07:53:56;;;;;;;5.47;3.10;;;;;;;14.65;66.49;100691.97;5000407;28;97123;-65
2022/12/26 07:56:23;;;;;;;4.20;2.42;;;;;;;14.82;66.12;100701.72;5005138;28;98171;-66
2022/12/26 07:58:49;;;;;;;4.63;2.75;;;;;;;14.77;66.42;100713.44;5000581;28;99592;-66
2022/12/26 08:01:17;;;;;;;2.63;2.15;;;;;;;14.86;66.31;100716.56;5003599;28;97082;-65
2022/12/26 08:03:44;;;;;;;3.45;2.90;;;;;;;14.88;65.99;100718.22;5000113;28;96980;-67
2022/12/26 08:06:11;;;;;;;3.58;2.70;;;;;;;14.85;66.17;100706.84;5008764;28;98852;-64
2022/12/26 08:08:37;;;;;;;3.15;2.38;;;;;;;15.01;65.64;100707.75;5002657;28;99014;-65
2022/12/26 08:11:06;;;;;;;3.22;2.47;;;;;;;15.01;65.61;100707.75;5009255;28;97059;-65
2022/12/26 08:13:32;;;;;;;3.42;2.53;;;;;;;14.96;65.59;100707.16;4999579;28;96864;-66
2022/12/26 08:15:59;;;;;;;4.28;3.03;;;;;;;14.96;65.79;100693.84;5008513;28;98430;-64
2022/12/26 08:18:27;;;;;;;2.38;2.17;;;;;;;15.02;65.41;100690.88;5002908;28;99200;-64
2022/12/26 08:20:53;;;;;;;2.75;2.40;;;;;;;14.87;65.90;100702.31;5006864;28;97160;-64
2022/12/26 08:23:20;;;;;;;3.65;2.30;;;;;;;14.96;65.68;100697.38;5009893;28;97135;-66
2022/12/26 08:25:46;;;;;;;3.17;2.15;;;;;;;14.85;66.24;100704.19;5008745;28;99970;-66
2022/12/26 08:28:13;;;;;;;2.20;2.00;;;;;;;14.95;65.21;100698.31;5002469;28;99300;-66
2022/12/26 08:30:41;;;;;;;4.07;2.40;;;;;;;14.82;65.36;100712.34;5005001;28;97382;-65
2022/12/26 08:33:07;;;;;;;3.33;2.15;;;;;;;14.93;65.34;100712.63;5003413;28;97073;-65
2022/12/26 08:35:36;;;;;;;4.20;2.38;;;;;;;14.95;65.54;100714.28;5004525;28;100205;-65
2022/12/26 08:38:02;;;;;;;2.15;1.90;;;;;;;15.00;65.35;100711.38;5004398;28;98786;-68
2022/12/26 08:40:29;;;;;;;4.35;2.05;;;;;;;15.16;65.10;100701.63;5002832;28;96749;-67
2022/12/26 08:42:55;;;;;;;3.05;2.15;;;;;;;15.16;64.83;100706.94;4998635;28;97272;-66
2022/12/26 08:45:22;;;;;;;2.90;1.83;;;;;;;15.26;64.86;100708.13;5005555;28;98438;-67
2022/12/26 08:47:49;;;;;;;2.65;2.10;;;;;;;15.07;65.03;100705.63;4997430;28;101214;-65
2022/12/26 08:50:16;;;;;;;3.28;1.95;;;;;;;15.04;65.31;100715.56;5001963;28;96809;-66
2022/12/26 08:52:44;;;;;;;2.63;1.70;;;;;;;15.18;65.11;100705.03;4997206;28;96846;-65
2022/12/26 08:55:10;;;;;;;3.28;1.60;;;;;;;15.15;65.04;100715.88;5003368;28;101441;-64
2022/12/26 08:57:37;;;;;;;2.60;2.00;;;;;;;15.01;65.46;100715.75;5005314;28;101612;-65
2022/12/26 09:00:06;;;;;;;4.05;2.13;;;;;;;15.05;65.23;100710.16;5007174;28;96977;-66
2022/12/26 09:02:33;;;;;;;3.03;1.80;;;;;;;15.10;65.24;100713.44;4999488;28;98347;-67
2022/12/26 09:04:59;;;;;;;3.17;1.98;;;;;;;14.98;65.66;100718.56;5008657;28;99202;-66
2022/12/26 09:07:26;;;;;;;3.35;1.92;;;;;;;15.14;64.92;100730.09;4999430;28;99791;-66
2022/12/26 09:09:53;;;;;;;5.82;2.03;;;;;;;14.96;65.39;100739.09;5011225;28;97260;-66
2022/12/26 09:12:20;;;;;;;3.17;1.65;;;;;;;15.11;65.38;100743.56;5009484;28;96938;-66
2022/12/26 09:14:47;;;;;;;2.33;2.03;;;;;;;14.93;65.54;100747.22;5010106;28;98926;-65
2022/12/26 09:17:14;;;;;;;4.47;2.10;;;;;;;15.00;65.49;100751.28;5007388;28;97700;-65
2022/12/26 09:19:41;;;;;;;2.22;1.70;;;;;;;14.86;66.00;100753.81;5006762;28;97278;-66
2022/12/26 09:24:51;;;;;;;2.15;1.95;;;;;;;14.54;66.66;100760.81;5010166;28;97116;-65
2022/12/26 09:27:20;;;;;;;5.28;2.60;;;;;;;14.55;67.42;100770.50;5008447;28;97793;-65
2022/12/26 09:29:46;;;;;;;3.83;2.63;;;;;;;14.42;67.63;100769.41;5012086;28;96939;-67
2022/12/26 09:32:12;;;;;;;5.05;2.38;;;;;;;14.53;67.25;100761.75;5008941;28;97263;-65
2022/12/26 09:34:39;;;;;;;5.78;3.05;;;;;;;14.54;67.12;100759.03;5009795;28;98983;-66
2022/12/26 09:37:05;;;;;;;2.55;2.13;;;;;;;14.50;66.93;100762.78;5005680;28;99735;-66
2022/12/26 09:39:32;;;;;;;4.05;2.70;;;;;;;14.74;66.67;100757.97;5009076;28;97410;-65
2022/12/26 09:42:07;;;;;;;3.13;2.42;;;;;;;14.65;66.54;100746.00;5008075;28;97187;-66
2022/12/26 09:44:46;;;;;;;2.60;2.35;;;;;;;14.89;66.10;100756.31;5008711;28;100720;-65
2022/12/26 09:47:29;;;;;;;3.70;2.58;;;;;;;14.72;66.03;100749.22;5008244;28;99930;-65
2022/12/26 09:50:00;;;;;;;4.97;2.58;;;;;;;14.84;66.38;100755.69;5007670;28;97440;-65
2022/12/26 09:52:36;;;;;;;3.35;2.92;;;;;;;14.91;66.19;100757.94;5011069;28;97052;-67
2022/12/26 09:55:06;;;;;;;;;;;;;;;14.94;65.76;100746.28;5007225;28;98170;-65
2022/12/26 09:57:39;;;;;;;4.43;2.80;;;;;;;15.08;65.07;100754.41;5008819;28;98893;-65
2022/12/26 10:00:16;;;;;;;5.68;2.90;;;;;;;15.07;65.07;100753.53;5008415;28;97121;-66
2022/12/26 10:02:42;;;;;;;3.92;2.55;;;;;;;15.08;64.87;100757.06;5010997;28;97005;-65
2022/12/26 10:05:13;;;;;;;3.05;2.17;;;;;;;15.11;64.72;100767.53;4999367;28;99415;-66
2022/12/26 10:07:44;;;;;;;5.88;3.78;;;;;;;15.02;64.34;100749.41;5005169;28;97792;-64
2022/12/26 10:10:11;;;;;;;3.67;2.53;;;;;;;15.00;64.36;100759.25;5005263;28;97122;-66
2022/12/26 10:12:46;;;;;;;3.08;2.13;;;;;;;14.89;64.32;100775.81;5009558;28;96900;-67
2022/12/26 10:15:35;;;;;;;4.55;2.13;;;;;;;14.92;64.43;100772.09;5008692;28;99067;-66
2022/12/26 10:18:13;;;;;;;6.03;3.20;;;;;;;15.12;63.77;100774.56;5005729;28;99192;-66
2022/12/26 10:20:53;;;;;;;4.13;2.17;;;;;;;15.23;63.34;100782.81;5009630;28;96744;-66
2022/12/26 10:23:31;;;;;;;6.05;2.40;;;;;;;15.42;62.51;100783.56;5007484;28;96932;-66
2022/12/26 10:26:04;;;;;;;2.90;2.17;;;;;;;15.42;62.70;100777.38;5009060;28;97605;-65
2022/12/26 10:28:36;;;;;;;2.40;1.85;;;;;;;15.32;62.85;100787.66;5009214;28;97969;-66
2022/12/26 10:31:09;;;;;;;4.10;2.00;;;;;;;15.29;62.98;100782.53;5009284;28;97323;-65
2022/12/26 10:33:45;;;;;;;3.08;2.00;;;;;;;15.27;62.98;100762.25;5011426;28;97220;-66
2022/12/26 10:36:17;;;;;;;2.97;2.05;;;;;;;15.24;63.59;100783.69;5003828;28;99950;-66
2022/12/26 10:38:47;;;;;;;2.80;2.10;;;;;;;15.07;64.02;100773.97;5001913;28;98843;-65
2022/12/26 10:41:20;;;;;;;1.90;1.70;;;;;;;15.21;63.87;100773.22;5009847;28;96923;-65
2022/12/26 10:43:47;;;;;;;8.40;2.20;;;;;;;15.04;63.81;100763.47;5010803;28;97165;-65
2022/12/26 10:46:34;;;;;;;2.58;2.00;;;;;;;15.02;63.99;100768.03;5005160;28;100390;-65
2022/12/26 10:49:01;;;;;;;3.22;2.28;;;;;;;14.93;63.55;100761.38;5009338;28;98971;-66
2022/12/26 10:51:27;;;;;;;6.13;2.92;;;;;;;15.04;63.06;100760.81;5002919;28;97471;-66
2022/12/26 10:53:54;;;;;;;2.78;1.85;;;;;;;15.10;62.90;100774.63;5010507;28;96912;-66
2022/12/26 10:56:23;;;;;;;1.75;1.40;;;;;;;15.12;62.75;100787.88;5005725;28;98265;-65
2022/12/26 10:59:00;;;;;;;2.33;1.70;;;;;;;15.20;62.25;100777.69;5009594;28;97961;-65
2022/12/26 11:01:34;;;;;;;2.78;1.80;;;;;;;15.10;62.39;100771.97;5009280;28;97208;-66
2022/12/26 11:04:02;;;;;;;1.80;1.23;;;;;;;14.91;62.55;100765.91;5008394;28;97139;-64
2022/12/26 11:06:32;;;;;;;2.22;1.52;;;;;;;15.02;62.30;100776.00;5008680;28;99211;-65
2022/12/26 11:08:59;;;;;;;2.00;1.50;;;;;;;14.88;62.18;100783.84;5008739;28;98949;-65
2022/12/26 11:11:44;;;;;;;5.10;1.90;;;;;;;14.96;62.26;100779.88;5010515;28;97208;-66
2022/12/26 11:14:26;;;;;;;2.65;1.55;;;;;;;14.89;61.98;100774.94;5007606;28;97027;-65
2022/12/26 11:16:57;;;;;;;2.72;1.65;;;;;;;14.78;61.91;100780.81;4996286;28;98910;-65
2022/12/26 11:19:28;;;;;;;1.42;1.33;;;;;;;15.04;61.47;100779.44;5004738;28;99752;-65
2022/12/26 11:21:54;;;;;;;4.18;1.35;;;;;;;14.90;61.84;100785.47;4999824;28;96885;-65
2022/12/26 11:24:21;;;;;;;1.40;1.30;;;;;;;14.64;62.58;100784.19;5001580;28;96921;-66
2022/12/26 11:26:48;;;;;;;2.92;1.67;;;;;;;14.96;61.79;100782.53;4998875;28;98923;-67
2022/12/26 11:29:17;;;;;;;3.50;1.83;;;;;;;14.98;62.21;100772.63;5004935;28;99150;-67
2022/12/26 11:31:52;;;;;;;3.28;1.63;;;;;;;14.82;62.14;100765.56;5003008;28;96886;-66
2022/12/26 11:34:27;;;;;;;3.13;2.15;;;;;;;14.85;62.22;100755.59;5004344;27;97161;-66
2022/12/26 11:36:54;;;;;;;2.42;1.38;;;;;;;14.98;61.96;100755.81;5004572;28;98961;-65
2022/12/26 11:39:23;;;;;;;2.90;1.90;;;;;;;14.55;62.76;100758.09;5006195;28;100031;-65
2022/12/26 11:41:50;;;;;;;1.92;1.70;;;;;;;14.83;62.41;100761.97;5009608;28;97352;-65
2022/12/26 11:44:22;;;;;;;2.55;1.58;;;;;;;14.92;61.93;100764.13;5009474;28;97327;-65
2022/12/26 11:46:53;;;;;;;3.42;1.77;;;;;;;15.15;61.66;100764.63;5008643;28;97926;-65
2022/12/26 11:49:28;;;;;;;1.52;1.40;;;;;;;14.80;62.47;100770.97;5008854;28;97726;-64
2022/12/26 11:51:54;;;;;;;1.52;1.42;;;;;;;14.91;62.23;100773.03;5007704;28;97082;-65
2022/12/26 11:54:25;;;;;;;3.42;1.67;;;;;;;14.86;62.20;100777.75;5004258;28;96825;-66
2022/12/26 11:57:17;;;;;;;3.60;1.70;;;;;;;14.98;62.03;100780.63;5006443;28;99310;-66
2022/12/26 11:59:44;;;;;;;3.10;2.17;;;;;;;15.18;61.12;100781.34;5002093;28;97514;-65
2022/12/26 12:02:24;;;;;;;2.30;1.95;;;;;;;15.29;61.01;100771.88;5004773;28;97104;-66
2022/12/26 12:04:54;;;;;;;1.85;1.75;;;;;;;15.17;61.40;100777.84;5002799;28;97211;-66
2022/12/26 12:07:40;;;;;;;3.25;1.90;;;;;;;15.37;61.01;100780.28;5002895;28;99069;-67
2022/12/26 12:10:48;;;;;;;2.25;1.88;;;;;;;15.11;61.72;100778.16;5001070;28;99057;-65
2022/12/26 12:13:25;;;;;;;2.47;2.28;;;;;;;15.13;61.92;100776.28;4997108;28;96921;-65
2022/12/26 12:15:57;;;;;;;2.95;2.00;;;;;;;14.93;62.41;100771.16;5006537;28;97311;-66
2022/12/26 12:18:37;;;;;;;1.85;1.75;;;;;;;14.98;62.43;100762.00;5007944;28;99675;-65
2022/12/26 12:21:15;;;;;;;2.53;2.20;;;;;;;15.06;61.76;100758.94;5004101;28;98858;-65
2022/12/26 12:23:55;;;;;;;3.42;1.90;;;;;;;15.08;61.94;100757.06;5002408;28;97317;-67
2022/12/26 12:26:30;;;;;;;2.60;2.40;;;;;;;14.82;62.74;100752.25;5004893;28;97241;-65
2022/12/26 12:29:16;;;;;;;2.67;2.33;;;;;;;14.62;63.32;100755.97;5007477;28;98564;-65
2022/12/26 12:32:00;;;;;;;3.30;2.10;;;;;;;14.70;63.14;100757.25;5012945;28;102188;-65
2022/12/26 12:34:36;;;;;;;2.67;2.30;;;;;;;14.76;63.06;100758.78;5011202;28;96918;-66
2022/12/26 12:37:24;;;;;;;2.33;2.03;;;;;;;14.67;63.40;100756.56;5000308;28;97167;-65
2022/12/26 12:39:56;;;;;;;6.07;2.70;;;;;;;14.86;62.75;100740.50;5011199;28;99080;-66
2022/12/26 12:42:37;;;;;;;4.15;3.20;;;;;;;14.82;62.83;100739.81;5003089;28;98915;-65
2022/12/26 12:45:26;;;;;;;3.55;2.60;;;;;;;15.03;61.97;100736.00;5001842;28;97715;-66
2022/12/26 12:48:03;;;;;;;2.55;2.35;;;;;;;15.04;62.22;100744.84;5007614;28;96902;-65
2022/12/26 12:50:37;;;;;;;3.17;2.30;;;;;;;14.94;62.36;100751.59;5005083;28;99392;-65
2022/12/26 12:53:17;;;;;;;4.53;2.90;;;;;;;15.02;61.99;100738.75;5006993;28;98794;-65
2022/12/26 12:55:55;;;;;;;3.13;2.55;;;;;;;15.18;61.63;100738.78;5005963;28;96700;-65
2022/12/26 12:58:29;;;;;;;2.72;2.13;;;;;;;15.32;60.99;100744.19;5008591;28;97441;-66
2022/12/26 13:01:01;;;;;;;3.45;2.80;;;;;;;15.33;60.97;100735.28;5005642;28;98971;-65
2022/12/26 13:03:34;;;;;;;5.22;2.47;;;;;;;15.24;61.18;100736.63;5013037;28;101576;-66
2022/12/26 13:06:06;;;;;;;3.60;2.65;;;;;;;15.46;60.68;100742.50;5009757;28;96770;-67
2022/12/26 13:08:38;;;;;;;4.53;2.63;;;;;;;15.41;60.93;100744.56;5011617;28;97290;-67
2022/12/26 13:11:09;;;;;;;2.40;2.20;;;;;;;15.25;61.05;100745.47;5010024;28;101136;-66
2022/12/26 13:13:40;;;;;;;3.95;2.40;;;;;;;15.35;61.14;100744.03;5011792;28;98842;-66
2022/12/26 13:16:11;;;;;;;3.58;2.50;;;;;;;15.27;61.05;100736.47;5009561;28;96732;-66
2022/12/26 13:18:44;;;;;;;3.55;2.60;;;;;;;15.15;61.25;100740.69;5007281;28;97379;-66
2022/12/26 13:21:12;;;;;;;2.85;2.40;;;;;;;15.08;61.44;100752.59;5002047;28;99015;-65
2022/12/26 13:26:35;;;;;;;5.00;2.63;;;;;;;15.09;61.88;100750.78;5000999;28;97350;-64
2022/12/26 13:29:07;;;;;;;2.30;2.10;;;;;;;14.82;62.58;100754.94;5006489;28;96889;-66
2022/12/26 13:31:35;;;;;;;3.10;2.30;;;;;;;15.08;62.03;100751.72;5007182;28;99119;-65
2022/12/26 13:34:04;;;;;;;2.58;2.08;;;;;;;15.07;61.80;100755.34;4999710;28;99276;-67
2022/12/26 13:36:42;;;;;;;2.13;1.98;;;;;;;14.88;62.29;100757.25;5004946;28;96802;-65
2022/12/26 13:39:33;;;;;;;2.92;2.05;;;;;;;15.13;61.70;100755.00;5008990;28;96862;-65
2022/12/26 13:44:51;;;;;;;5.07;2.30;;;;;;;14.61;62.93;100746.25;5004426;28;97420;-65
2022/12/26 13:47:33;;;;;;;4.55;2.80;;;;;;;14.83;62.72;100757.50;5007216;28;97055;-66
2022/12/26 13:50:38;;;;;;;2.35;2.08;;;;;;;14.74;62.62;100756.19;5009565;28;96821;-64
2022/12/26 13:53:07;;;;;;;2.67;2.15;;;;;;;14.72;62.41;100754.53;5002845;28;99343;-65
2022/12/26 13:55:43;;;;;;;5.45;2.22;;;;;;;14.69;62.40;100750.25;5009837;28;100826;-67
2022/12/26 13:58:25;;;;;;;2.53;2.30;;;;;;;14.59;63.21;100764.09;5000568;28;97248;-66